createdAt,value
2023-04-18T00:02:11.001Z,102656.91
2023-04-18T00:04:51.382Z,102659.66
2023-04-18T00:07:18.268Z,102656.22
2023-04-18T00:09:46.407Z,102653.81
2023-04-18T00:12:13.344Z,102647.03
2023-04-18T00:14:41.222Z,102649.69
2023-04-18T00:17:09.662Z,102648.00
2023-04-18T00:19:37.881Z,102648.97
2023-04-18T00:22:05.295Z,102650.91
2023-04-18T00:24:33.407Z,102653.31
2023-04-18T00:27:01.850Z,102654.72
2023-04-18T00:29:32.540Z,102655.91
2023-04-18T00:31:59.590Z,102652.25
2023-04-18T00:34:26.670Z,102646.78
2023-04-18T00:37:00.836Z,102655.72
2023-04-18T00:39:27.638Z,102663.03
2023-04-18T00:41:54.412Z,102654.88
2023-04-18T00:44:21.188Z,102641.81
2023-04-18T00:47:01.613Z,102647.75
2023-04-18T00:49:28.726Z,102651.16
2023-04-18T00:51:57.468Z,102641.72
2023-04-18T00:54:24.991Z,102638.31
2023-04-18T00:56:58.675Z,102644.13
2023-04-18T00:59:25.998Z,102645.19
2023-04-18T01:01:53.301Z,102648.75
2023-04-18T01:04:20.583Z,102640.97
2023-04-18T01:06:48.507Z,102639.06
2023-04-18T01:09:31.062Z,102639.88
2023-04-18T01:11:57.800Z,102642.41
2023-04-18T01:14:59.915Z,102640.56
2023-04-18T01:17:29.023Z,102643.91
2023-04-18T01:19:57.097Z,102641.25
2023-04-18T01:22:24.500Z,102630.78
2023-04-18T01:24:52.010Z,102635.66
2023-04-18T01:27:19.922Z,102639.16
2023-04-18T01:29:46.879Z,102638.81
2023-04-18T01:32:15.103Z,102640.00
2023-04-18T01:34:41.846Z,102637.84
2023-04-18T01:37:15.797Z,102634.56
2023-04-18T01:39:42.460Z,102639.53
2023-04-18T01:42:31.037Z,102641.53
2023-04-18T01:44:57.935Z,102631.69
2023-04-18T01:47:50.810Z,102627.75
2023-04-18T01:50:17.517Z,102627.19
2023-04-18T01:52:44.044Z,102633.53
2023-04-18T01:55:11.022Z,102634.84
2023-04-18T01:57:38.511Z,102623.31
2023-04-18T02:00:06.363Z,102624.53
2023-04-18T02:02:33.726Z,102628.44
2023-04-18T02:05:22.263Z,102631.53
2023-04-18T02:07:50.394Z,102625.50
2023-04-18T02:10:17.435Z,102622.34
2023-04-18T02:12:51.824Z,102628.53
2023-04-18T02:15:18.901Z,102617.97
2023-04-18T02:17:45.994Z,102628.00
2023-04-18T02:20:13.855Z,102631.44
2023-04-18T02:22:40.859Z,102631.16
2023-04-18T02:25:07.995Z,102631.84
2023-04-18T02:27:36.742Z,102631.41
2023-04-18T02:30:03.749Z,102627.69
2023-04-18T02:32:44.772Z,102628.22
2023-04-18T02:35:13.907Z,102630.97
2023-04-18T02:37:40.901Z,102635.31
2023-04-18T02:40:08.392Z,102632.91
2023-04-18T02:42:36.386Z,102632.84
2023-04-18T02:45:04.040Z,102630.41
2023-04-18T02:47:35.416Z,102634.50
2023-04-18T02:50:10.858Z,102634.88
2023-04-18T02:52:37.690Z,102629.56
2023-04-18T02:55:13.185Z,102637.44
2023-04-18T02:57:39.972Z,102636.09
2023-04-18T03:00:08.796Z,102637.59
2023-04-18T03:02:36.970Z,102638.41
2023-04-18T03:05:03.927Z,102636.44
2023-04-18T03:07:31.140Z,102636.88
2023-04-18T03:09:58.234Z,102647.59
2023-04-18T03:12:24.970Z,102650.09
2023-04-18T03:15:08.666Z,102647.03
2023-04-18T03:17:36.180Z,102644.16
2023-04-18T03:20:05.862Z,102640.78
2023-04-18T03:22:33.305Z,102651.25
2023-04-18T03:25:07.891Z,102646.50
2023-04-18T03:27:35.326Z,102649.84
2023-04-18T03:30:11.018Z,102651.47
2023-04-18T03:32:39.343Z,102651.78
2023-04-18T03:35:22.347Z,102651.16
2023-04-18T03:37:51.190Z,102646.03
2023-04-18T03:40:19.296Z,102651.16
2023-04-18T03:42:46.105Z,102651.28
2023-04-18T03:45:13.902Z,102659.22
2023-04-18T03:47:40.915Z,102656.13
2023-04-18T03:50:07.989Z,102668.19
2023-04-18T03:52:35.169Z,102663.72
2023-04-18T03:55:10.772Z,102662.22
2023-04-18T03:57:37.899Z,102668.34
2023-04-18T04:00:06.302Z,102670.00
2023-04-18T04:02:48.122Z,102675.06
2023-04-18T04:05:15.032Z,102677.03
2023-04-18T04:07:41.973Z,102674.81
2023-04-18T04:10:32.426Z,102679.84
2023-04-18T04:12:59.436Z,102680.78
2023-04-18T04:15:26.394Z,102681.16
2023-04-18T04:18:02.686Z,102687.63
2023-04-18T04:20:29.668Z,102679.00
2023-04-18T04:23:02.883Z,102682.47
2023-04-18T04:25:31.724Z,102686.19
2023-04-18T04:28:01.746Z,102692.84
2023-04-18T04:30:34.684Z,102691.34
2023-04-18T04:33:02.118Z,102699.09
2023-04-18T04:35:29.173Z,102697.03
2023-04-18T04:37:56.839Z,102694.00
2023-04-18T04:40:24.279Z,102695.91
2023-04-18T04:42:54.578Z,102702.66
2023-04-18T04:45:22.066Z,102701.44
2023-04-18T04:47:50.113Z,102705.94
2023-04-18T04:50:17.982Z,102708.06
2023-04-18T04:52:44.472Z,102699.03
2023-04-18T04:55:11.230Z,102706.78
2023-04-18T04:57:37.797Z,102709.16
2023-04-18T05:00:08.235Z,102711.78
2023-04-18T05:02:35.108Z,102719.69
2023-04-18T05:05:02.004Z,102715.97
2023-04-18T05:07:34.610Z,102709.44
2023-04-18T05:10:05.811Z,102723.34
2023-04-18T05:12:32.492Z,102722.94
2023-04-18T05:14:59.100Z,102723.47
2023-04-18T05:17:25.685Z,102719.22
2023-04-18T05:19:52.256Z,102717.19
2023-04-18T05:22:18.731Z,102710.66
2023-04-18T05:24:45.233Z,102724.47
2023-04-18T05:27:12.171Z,102726.25
2023-04-18T05:29:38.525Z,102719.81
2023-04-18T05:32:05.152Z,102709.16
2023-04-18T05:34:32.024Z,102717.00
2023-04-18T05:36:58.635Z,102712.78
2023-04-18T05:39:25.315Z,102717.03
2023-04-18T05:41:51.859Z,102710.59
2023-04-18T05:44:18.744Z,102711.41
2023-04-18T05:46:45.999Z,102710.94
2023-04-18T05:49:12.767Z,102714.09
2023-04-18T05:51:39.161Z,102716.06
2023-04-18T05:54:05.535Z,102721.25
2023-04-18T05:56:31.987Z,102723.66
2023-04-18T05:58:58.573Z,102729.50
2023-04-18T06:01:24.924Z,102728.72
2023-04-18T06:03:51.546Z,102726.59
2023-04-18T06:06:18.268Z,102727.13
2023-04-18T06:08:45.018Z,102732.47
2023-04-18T06:11:11.649Z,102726.91
2023-04-18T06:13:38.181Z,102735.69
2023-04-18T06:16:05.176Z,102744.28
2023-04-18T06:18:31.542Z,102728.25
2023-04-18T06:20:57.915Z,102739.50
2023-04-18T06:23:24.327Z,102736.59
2023-04-18T06:25:51.713Z,102726.78
2023-04-18T06:28:18.076Z,102730.06
2023-04-18T06:30:44.582Z,102735.19
2023-04-18T06:33:11.398Z,102737.50
2023-04-18T06:35:38.622Z,102730.66
2023-04-18T06:38:04.960Z,102735.69
2023-04-18T06:40:31.510Z,102730.66
2023-04-18T06:42:57.903Z,102742.78
2023-04-18T06:45:25.973Z,102733.38
2023-04-18T06:47:53.258Z,102743.13
2023-04-18T06:50:19.758Z,102737.59
2023-04-18T06:52:46.241Z,102739.03
2023-04-18T06:55:13.975Z,102741.84
2023-04-18T06:57:41.681Z,102742.94
2023-04-18T07:00:08.970Z,102745.22
2023-04-18T07:02:36.338Z,102744.91
2023-04-18T07:05:04.068Z,102739.22
2023-04-18T07:07:31.019Z,102743.59
2023-04-18T07:09:57.752Z,102742.13
2023-04-18T07:12:24.493Z,102748.69
2023-04-18T07:14:54.499Z,102746.91
2023-04-18T07:17:21.659Z,102751.34
2023-04-18T07:19:48.231Z,102747.94
2023-04-18T07:22:14.706Z,102746.28
2023-04-18T07:24:42.481Z,102751.09
2023-04-18T07:27:09.872Z,102748.72
2023-04-18T07:29:36.623Z,102747.16
2023-04-18T07:32:03.410Z,102747.03
2023-04-18T07:34:30.226Z,102742.25
2023-04-18T07:36:57.189Z,102749.66
2023-04-18T07:39:24.155Z,102739.38
2023-04-18T07:41:50.772Z,102745.25
2023-04-18T07:44:18.633Z,102746.94
2023-04-18T07:46:46.451Z,102746.84
2023-04-18T07:49:14.320Z,102744.16
2023-04-18T07:51:41.013Z,102759.84
2023-04-18T07:54:07.667Z,102750.69
2023-04-18T07:56:34.145Z,102757.88
2023-04-18T07:59:01.655Z,102755.22
2023-04-18T08:01:28.392Z,102756.53
2023-04-18T08:03:56.715Z,102743.41
2023-04-18T08:06:23.319Z,102741.06
2023-04-18T08:08:49.597Z,102740.91
2023-04-18T08:11:17.244Z,102751.00
2023-04-18T08:13:43.887Z,102764.75
2023-04-18T08:16:10.713Z,102761.19
2023-04-18T08:18:39.331Z,102770.97
2023-04-18T08:21:05.771Z,102759.63
2023-04-18T08:23:32.474Z,102773.09
2023-04-18T08:26:01.744Z,102760.75
2023-04-18T08:28:28.468Z,102776.25
2023-04-18T08:30:56.619Z,102773.75
2023-04-18T08:33:24.194Z,102779.84
2023-04-18T08:35:53.906Z,102773.78
2023-04-18T08:38:20.409Z,102786.84
2023-04-18T08:40:47.276Z,102777.53
2023-04-18T08:43:15.068Z,102777.22
2023-04-18T08:45:45.815Z,102771.25
2023-04-18T08:48:14.532Z,102776.63
2023-04-18T08:50:41.618Z,102774.44
2023-04-18T08:53:08.543Z,102772.94
2023-04-18T08:55:36.570Z,102768.34
2023-04-18T08:58:03.346Z,102772.84
2023-04-18T09:00:30.585Z,102772.84
2023-04-18T09:02:57.608Z,102771.00
2023-04-18T09:05:25.267Z,102771.78
2023-04-18T09:07:53.819Z,102769.00
2023-04-18T09:10:31.024Z,102780.09
2023-04-18T09:12:58.159Z,102773.25
2023-04-18T09:15:27.373Z,102778.19
2023-04-18T09:17:56.461Z,102777.78
2023-04-18T09:20:35.241Z,102769.97
2023-04-18T09:23:03.710Z,102772.28
2023-04-18T09:25:34.631Z,102776.53
2023-04-18T09:28:02.549Z,102783.63
2023-04-18T09:30:38.028Z,102775.19
2023-04-18T09:33:07.387Z,102782.94
2023-04-18T09:35:35.140Z,102783.53
2023-04-18T09:38:01.906Z,102778.94
2023-04-18T09:40:28.680Z,102773.13
2023-04-18T09:42:55.489Z,102764.28
2023-04-18T09:45:22.688Z,102773.03
2023-04-18T09:47:49.101Z,102772.38
2023-04-18T09:50:18.754Z,102774.63
2023-04-18T09:52:45.622Z,102781.91
2023-04-18T09:55:16.949Z,102780.03
2023-04-18T09:57:47.580Z,102793.81
2023-04-18T10:00:25.646Z,102785.25
2023-04-18T10:02:54.869Z,102786.53
2023-04-18T10:05:24.208Z,102793.41
2023-04-18T10:07:51.398Z,102787.66
2023-04-18T10:10:18.312Z,102784.69
2023-04-18T10:12:47.827Z,102790.75
2023-04-18T10:15:15.737Z,102788.69
2023-04-18T10:18:02.713Z,102785.22
2023-04-18T10:20:34.097Z,102793.53
2023-04-18T10:23:20.518Z,102786.38
2023-04-18T10:25:47.518Z,102786.97
2023-04-18T10:28:14.593Z,102782.00
2023-04-18T10:30:40.995Z,102779.03
2023-04-18T10:33:30.965Z,102779.09
2023-04-18T10:36:01.852Z,102789.06
2023-04-18T10:38:28.738Z,102790.69
2023-04-18T10:41:15.275Z,102776.75
2023-04-18T10:44:00.648Z,102790.06
2023-04-18T10:46:32.520Z,102781.19
2023-04-18T10:49:14.495Z,102786.22
2023-04-18T10:51:41.485Z,102786.72
2023-04-18T10:54:09.459Z,102777.16
2023-04-18T10:56:36.279Z,102776.22
2023-04-18T10:59:03.750Z,102776.22
2023-04-18T11:01:33.306Z,102769.50
2023-04-18T11:04:01.163Z,102783.97
2023-04-18T11:06:28.487Z,102783.94
2023-04-18T11:09:11.879Z,102781.28
2023-04-18T11:11:38.422Z,102774.94
2023-04-18T11:14:05.231Z,102781.38
2023-04-18T11:16:32.996Z,102785.28
2023-04-18T11:18:59.560Z,102787.81
2023-04-18T11:21:30.311Z,102786.88
2023-04-18T11:23:57.946Z,102786.31
2023-04-18T11:26:25.269Z,102785.66
2023-04-18T11:28:53.036Z,102782.84
2023-04-18T11:31:22.328Z,102786.34
2023-04-18T11:33:49.288Z,102776.34
2023-04-18T11:36:16.169Z,102774.09
2023-04-18T11:38:43.003Z,102778.59
2023-04-18T11:41:14.501Z,102777.75
2023-04-18T11:43:44.948Z,102780.97
2023-04-18T11:46:13.955Z,102784.06
2023-04-18T11:48:42.266Z,102776.34
2023-04-18T11:51:29.294Z,102782.69
2023-04-18T11:53:56.236Z,102770.44
2023-04-18T11:56:22.771Z,102773.97
2023-04-18T11:58:49.258Z,102769.66
2023-04-18T12:01:20.037Z,102770.63
2023-04-18T12:04:04.863Z,102771.72
2023-04-18T12:06:50.914Z,102777.06
2023-04-18T12:09:17.664Z,102774.78
2023-04-18T12:11:45.056Z,102775.63
2023-04-18T12:14:21.891Z,102770.25
2023-04-18T12:16:51.669Z,102772.69
2023-04-18T12:19:20.810Z,102770.13
2023-04-18T12:22:00.788Z,102769.66
2023-04-18T12:24:29.551Z,102768.66
2023-04-18T12:26:57.447Z,102764.34
2023-04-18T12:29:24.481Z,102765.88
2023-04-18T12:31:51.422Z,102758.09
2023-04-18T12:34:18.002Z,102751.81
2023-04-18T12:36:44.545Z,102761.59
2023-04-18T12:39:11.246Z,102762.53
2023-04-18T12:41:37.780Z,102757.19
2023-04-18T12:44:04.294Z,102757.91
2023-04-18T12:46:31.366Z,102752.09
2023-04-18T12:48:58.171Z,102748.56
2023-04-18T12:51:26.619Z,102750.13
2023-04-18T12:53:53.285Z,102740.59
2023-04-18T12:56:19.902Z,102748.97
2023-04-18T12:58:46.779Z,102744.94
2023-04-18T13:01:15.210Z,102749.97
2023-04-18T13:03:42.257Z,102749.22
2023-04-18T13:06:08.920Z,102743.63
2023-04-18T13:08:35.590Z,102733.25
2023-04-18T13:11:03.708Z,102747.78
2023-04-18T13:13:30.827Z,102745.78
2023-04-18T13:15:57.237Z,102742.19
2023-04-18T13:18:23.676Z,102735.31
2023-04-18T13:20:50.593Z,102743.50
2023-04-18T13:23:17.817Z,102742.13
2023-04-18T13:25:44.502Z,102743.00
2023-04-18T13:28:11.152Z,102739.66
2023-04-18T13:30:37.589Z,102750.25
2023-04-18T13:33:04.444Z,102756.06
2023-04-18T13:35:31.418Z,102747.19
2023-04-18T13:37:57.863Z,102741.94
2023-04-18T13:40:25.766Z,102745.63
2023-04-18T13:42:52.808Z,102752.09
2023-04-18T13:45:19.347Z,102750.44
2023-04-18T13:47:46.192Z,102741.34
2023-04-18T13:50:13.065Z,102750.28
2023-04-18T13:52:39.705Z,102745.03
2023-04-18T13:55:08.301Z,102735.47
2023-04-18T13:57:35.948Z,102736.22
2023-04-18T14:00:05.103Z,102737.44
2023-04-18T14:02:32.124Z,102729.19
2023-04-18T14:04:59.363Z,102729.31
2023-04-18T14:07:26.428Z,102738.53
2023-04-18T14:09:53.985Z,102739.28
2023-04-18T14:12:20.970Z,102746.44
2023-04-18T14:14:48.032Z,102741.72
2023-04-18T14:17:14.474Z,102734.78
2023-04-18T14:19:40.891Z,102732.47
2023-04-18T14:22:07.982Z,102732.28
2023-04-18T14:24:37.486Z,102740.19
2023-04-18T14:27:04.643Z,102737.66
2023-04-18T14:29:31.193Z,102725.25
2023-04-18T14:31:57.782Z,102726.97
2023-04-18T14:34:24.735Z,102733.16
2023-04-18T14:36:51.544Z,102725.75
2023-04-18T14:39:17.938Z,102720.19
2023-04-18T14:41:46.171Z,102716.63
2023-04-18T14:44:14.635Z,102717.81
2023-04-18T14:46:44.108Z,102722.34
2023-04-18T14:49:12.869Z,102720.47
2023-04-18T14:51:39.381Z,102723.16
2023-04-18T14:54:06.641Z,102723.59
2023-04-18T14:56:35.556Z,102717.09
2023-04-18T14:59:02.797Z,102722.06
2023-04-18T15:01:29.748Z,102721.97
2023-04-18T15:04:06.006Z,102727.75
2023-04-18T15:06:44.375Z,102715.22
2023-04-18T15:09:11.267Z,102716.78
2023-04-18T15:11:38.315Z,102711.09
2023-04-18T15:14:05.068Z,102709.22
2023-04-18T15:16:32.489Z,102710.66
2023-04-18T15:19:00.573Z,102703.50
2023-04-18T15:21:33.539Z,102704.34
2023-04-18T15:24:01.190Z,102701.38
2023-04-18T15:26:28.126Z,102699.16
2023-04-18T15:28:56.235Z,102703.91
2023-04-18T15:31:24.280Z,102702.75
2023-04-18T15:33:51.231Z,102703.72
2023-04-18T15:36:18.342Z,102713.44
2023-04-18T15:38:46.639Z,102716.28
2023-04-18T15:41:13.430Z,102713.78
2023-04-18T15:43:58.980Z,102722.56
2023-04-18T15:46:25.931Z,102717.50
2023-04-18T15:48:53.600Z,102707.03
2023-04-18T15:51:22.433Z,102719.00
2023-04-18T15:53:49.129Z,102712.91
2023-04-18T15:56:17.345Z,102715.91
2023-04-18T15:58:44.087Z,102709.31
2023-04-18T16:01:19.008Z,102711.72
2023-04-18T16:03:45.945Z,102710.97
2023-04-18T16:06:19.580Z,102708.69
2023-04-18T16:08:46.279Z,102717.78
2023-04-18T16:11:21.629Z,102710.16
2023-04-18T16:13:49.165Z,102707.31
2023-04-18T16:16:17.081Z,102707.56
2023-04-18T16:18:46.211Z,102717.09
2023-04-18T16:21:13.767Z,102705.91
2023-04-18T16:23:40.652Z,102712.53
2023-04-18T16:26:08.614Z,102716.94
2023-04-18T16:28:38.422Z,102725.03
2023-04-18T16:31:20.606Z,102724.69
2023-04-18T16:33:47.420Z,102718.59
2023-04-18T16:36:14.191Z,102724.44
2023-04-18T16:38:41.083Z,102721.66
2023-04-18T16:41:09.303Z,102720.38
2023-04-18T16:43:36.686Z,102727.53
2023-04-18T16:46:04.436Z,102736.44
2023-04-18T16:48:31.651Z,102738.00
2023-04-18T16:51:23.546Z,102734.34
2023-04-18T16:53:50.354Z,102741.97
2023-04-18T16:56:17.096Z,102742.47
2023-04-18T16:58:43.896Z,102739.69
2023-04-18T17:01:10.704Z,102744.56
2023-04-18T17:03:44.266Z,102739.69
2023-04-18T17:06:12.595Z,102739.81
2023-04-18T17:08:40.789Z,102737.69
2023-04-18T17:11:08.012Z,102741.34
2023-04-18T17:13:36.061Z,102740.84
2023-04-18T17:16:03.377Z,102737.16
2023-04-18T17:18:30.192Z,102742.53
2023-04-18T17:20:56.943Z,102748.69
2023-04-18T17:23:24.328Z,102743.41
2023-04-18T17:25:51.348Z,102745.63
2023-04-18T17:28:19.450Z,102752.97
2023-04-18T17:30:46.651Z,102750.94
2023-04-18T17:33:13.862Z,102749.16
2023-04-18T17:35:43.271Z,102742.78
2023-04-18T17:38:11.613Z,102742.47
2023-04-18T17:40:40.389Z,102742.19
2023-04-18T17:43:07.527Z,102753.88
2023-04-18T17:45:53.740Z,102750.41
2023-04-18T17:48:20.361Z,102755.75
2023-04-18T17:51:05.865Z,102759.19
2023-04-18T17:53:32.668Z,102762.22
2023-04-18T17:56:00.581Z,102758.81
2023-04-18T17:58:30.636Z,102766.75
2023-04-18T18:00:57.543Z,102764.75
2023-04-18T18:03:25.007Z,102764.72
2023-04-18T18:05:53.413Z,102772.91
2023-04-18T18:08:22.222Z,102776.50
2023-04-18T18:10:49.907Z,102779.66
2023-04-18T18:13:21.423Z,102772.94
2023-04-18T18:15:57.888Z,102786.63
2023-04-18T18:18:25.273Z,102781.94
2023-04-18T18:20:52.665Z,102789.94
2023-04-18T18:23:22.988Z,102785.97
2023-04-18T18:25:51.339Z,102789.31
2023-04-18T18:28:18.693Z,102781.44
2023-04-18T18:30:47.627Z,102789.00
2023-04-18T18:33:15.173Z,102790.31
2023-04-18T18:35:41.952Z,102799.56
2023-04-18T18:38:10.273Z,102800.59
2023-04-18T18:40:39.702Z,102808.25
2023-04-18T18:43:07.864Z,102799.72
2023-04-18T18:45:36.865Z,102807.41
2023-04-18T18:48:06.941Z,102805.66
2023-04-18T18:50:35.765Z,102805.59
2023-04-18T18:53:03.024Z,102805.59
2023-04-18T18:55:30.391Z,102819.63
2023-04-18T18:58:01.611Z,102817.13
2023-04-18T19:00:30.555Z,102810.81
2023-04-18T19:02:58.717Z,102805.97
2023-04-18T19:05:27.473Z,102802.94
2023-04-18T19:07:57.460Z,102803.28
2023-04-18T19:10:25.106Z,102804.53
2023-04-18T19:12:53.347Z,102809.91
2023-04-18T19:15:21.050Z,102808.63
2023-04-18T19:17:51.771Z,102811.78
2023-04-18T19:20:19.438Z,102808.50
2023-04-18T19:22:49.151Z,102807.97
2023-04-18T19:25:17.152Z,102814.78
2023-04-18T19:27:46.392Z,102816.63
2023-04-18T19:30:14.736Z,102817.25
2023-04-18T19:32:43.551Z,102816.13
2023-04-18T19:35:14.003Z,102818.47
2023-04-18T19:37:41.979Z,102807.56
2023-04-18T19:40:09.767Z,102820.84
2023-04-18T19:42:37.322Z,102814.13
2023-04-18T19:45:05.728Z,102817.09
2023-04-18T19:47:34.988Z,102826.56
2023-04-18T19:50:07.623Z,102818.00
2023-04-18T19:52:36.088Z,102835.91
2023-04-18T19:55:05.010Z,102829.22
2023-04-18T19:57:32.633Z,102830.88
2023-04-18T20:00:00.069Z,102833.41
2023-04-18T20:02:27.486Z,102840.97
2023-04-18T20:04:56.804Z,102830.44
2023-04-18T20:07:26.118Z,102836.69
2023-04-18T20:09:54.275Z,102844.00
2023-04-18T20:12:23.541Z,102852.94
2023-04-18T20:14:53.849Z,102850.66
2023-04-18T20:17:24.442Z,102852.34
2023-04-18T20:19:53.956Z,102852.13
2023-04-18T20:22:21.916Z,102844.50
2023-04-18T20:24:49.471Z,102849.59
2023-04-18T20:27:24.110Z,102853.84
2023-04-18T20:29:54.161Z,102858.22
2023-04-18T20:32:22.897Z,102852.69
2023-04-18T20:34:54.000Z,102854.31
2023-04-18T20:37:26.019Z,102846.47
2023-04-18T20:39:56.411Z,102853.91
2023-04-18T20:42:23.912Z,102847.66
2023-04-18T20:44:50.935Z,102862.53
2023-04-18T20:47:19.209Z,102851.19
2023-04-18T20:49:45.741Z,102864.09
2023-04-18T20:52:14.457Z,102862.81
2023-04-18T20:54:44.807Z,102870.94
2023-04-18T20:57:12.792Z,102869.69
2023-04-18T20:59:40.159Z,102871.59
2023-04-18T21:02:09.205Z,102865.44
2023-04-18T21:04:36.153Z,102880.91
2023-04-18T21:07:02.896Z,102874.66
2023-04-18T21:09:31.339Z,102882.81
2023-04-18T21:12:06.173Z,102878.94
2023-04-18T21:14:33.331Z,102888.59
2023-04-18T21:17:00.504Z,102880.16
2023-04-18T21:19:28.610Z,102890.06
2023-04-18T21:21:55.488Z,102884.97
2023-04-18T21:24:23.444Z,102881.09
2023-04-18T21:26:50.159Z,102883.91
2023-04-18T21:29:16.773Z,102882.66
2023-04-18T21:31:43.783Z,102881.72
2023-04-18T21:34:11.375Z,102878.38
2023-04-18T21:36:40.423Z,102891.69
2023-04-18T21:39:08.469Z,102883.13
2023-04-18T21:41:35.352Z,102892.16
2023-04-18T21:44:05.284Z,102895.66
2023-04-18T21:46:32.534Z,102897.91
2023-04-18T21:48:59.573Z,102881.97
2023-04-18T21:51:27.573Z,102887.59
2023-04-18T21:53:55.887Z,102887.31
2023-04-18T21:56:29.415Z,102885.00
2023-04-18T21:58:56.181Z,102879.06
2023-04-18T22:01:23.996Z,102888.38
2023-04-18T22:03:51.090Z,102888.38
2023-04-18T22:06:24.038Z,102885.53
2023-04-18T22:08:51.891Z,102882.56
2023-04-18T22:11:20.219Z,102881.25
2023-04-18T22:13:47.589Z,102871.41
2023-04-18T22:16:17.643Z,102886.13
2023-04-18T22:18:44.215Z,102883.00
2023-04-18T22:21:11.634Z,102875.16
2023-04-18T22:24:13.809Z,102877.19
2023-04-18T22:26:41.062Z,102883.94
2023-04-18T22:29:09.443Z,102880.56
2023-04-18T22:31:37.669Z,102883.69
2023-04-18T22:34:04.765Z,102883.00
2023-04-18T22:36:31.677Z,102887.69
2023-04-18T22:39:00.560Z,102881.44
2023-04-18T22:41:27.414Z,102888.53
2023-04-18T22:43:54.227Z,102870.16
2023-04-18T22:46:23.299Z,102878.63
2023-04-18T22:48:54.209Z,102877.34
2023-04-18T22:51:23.413Z,102868.47
2023-04-18T22:53:50.324Z,102870.22
2023-04-18T22:56:17.221Z,102869.81
2023-04-18T22:58:43.928Z,102870.28
2023-04-18T23:01:11.175Z,102869.78
2023-04-18T23:03:45.864Z,102863.03
2023-04-18T23:06:12.724Z,102866.19
2023-04-18T23:08:41.335Z,102859.06
2023-04-18T23:11:30.036Z,102848.88
2023-04-18T23:13:56.859Z,102849.84
2023-04-18T23:16:23.932Z,102849.31
2023-04-18T23:18:50.862Z,102853.44
2023-04-18T23:21:19.579Z,102860.66
2023-04-18T23:23:47.296Z,102850.75
2023-04-18T23:26:14.836Z,102853.38
2023-04-18T23:28:51.140Z,102853.81
2023-04-18T23:31:18.165Z,102851.38
2023-04-18T23:33:45.566Z,102854.59
2023-04-18T23:36:21.894Z,102852.22
2023-04-18T23:38:49.247Z,102849.47
2023-04-18T23:41:16.300Z,102853.63
2023-04-18T23:43:43.031Z,102847.41
2023-04-18T23:46:23.072Z,102841.75
2023-04-18T23:48:49.769Z,102847.56
2023-04-18T23:51:16.343Z,102837.94
2023-04-18T23:53:43.473Z,102837.66
2023-04-18T23:56:10.381Z,102834.25
2023-04-18T23:58:37.217Z,102829.53
